createdAt,value
2023-12-11T00:01:10.209Z,29.52
2023-12-11T00:03:38.689Z,20.25
2023-12-11T00:06:08.589Z,29.48
2023-12-11T00:08:37.119Z,34.83
2023-12-11T00:11:05.366Z,31.67
2023-12-11T00:13:33.406Z,27.65
2023-12-11T00:16:01.381Z,26.95
2023-12-11T00:18:29.457Z,35.53
2023-12-11T00:20:57.438Z,25.20
2023-12-11T00:23:27.340Z,27.60
2023-12-11T00:25:55.235Z,28.73
2023-12-11T00:28:23.112Z,34.22
2023-12-11T00:30:52.225Z,24.40
2023-12-11T00:33:20.394Z,27.80
2023-12-11T00:35:48.398Z,31.15
2023-12-11T00:38:16.276Z,25.75
2023-12-11T00:40:47.836Z,28.50
2023-12-11T00:43:15.823Z,25.30
2023-12-11T00:45:43.938Z,29.58
2023-12-11T00:48:12.036Z,25.90
2023-12-11T00:50:40.015Z,30.33
2023-12-11T00:53:08.368Z,24.17
2023-12-11T00:55:36.330Z,26.80
2023-12-11T00:58:05.654Z,22.52
2023-12-11T01:00:33.636Z,25.58
2023-12-11T01:03:01.926Z,30.08
2023-12-11T01:05:29.869Z,33.20
2023-12-11T01:07:58.108Z,34.03
2023-12-11T01:10:26.007Z,31.52
2023-12-11T01:12:53.912Z,17.55
2023-12-11T01:15:23.400Z,20.42
2023-12-11T01:17:51.582Z,33.63
2023-12-11T01:20:19.679Z,31.35
2023-12-11T01:22:47.582Z,28.00
2023-12-11T01:25:15.667Z,34.08
2023-12-11T01:27:43.581Z,28.73
2023-12-11T01:30:12.033Z,21.67
2023-12-11T01:32:41.307Z,29.80
2023-12-11T01:35:09.920Z,18.05
2023-12-11T01:37:37.827Z,21.45
2023-12-11T01:40:08.445Z,28.48
2023-12-11T01:42:36.614Z,23.05
2023-12-11T01:45:04.935Z,30.13
2023-12-11T01:47:33.337Z,24.42
2023-12-11T01:50:02.937Z,29.10
2023-12-11T01:52:30.978Z,35.35
2023-12-11T01:54:58.985Z,23.17
2023-12-11T01:57:27.013Z,30.90
2023-12-11T01:59:55.013Z,20.80
2023-12-11T02:02:22.942Z,13.57
2023-12-11T02:04:55.148Z,13.65
2023-12-11T02:07:24.597Z,25.25
2023-12-11T02:09:52.596Z,32.20
2023-12-11T02:12:20.509Z,23.35
2023-12-11T02:14:48.387Z,21.92
2023-12-11T02:17:16.313Z,23.92
2023-12-11T02:19:44.381Z,23.60
2023-12-11T02:22:12.686Z,26.90
2023-12-11T02:24:48.475Z,21.50
2023-12-11T02:27:18.032Z,24.80
2023-12-11T02:29:45.920Z,27.70
2023-12-11T02:32:17.523Z,32.08
2023-12-11T02:34:47.798Z,26.55
2023-12-11T02:37:15.807Z,30.20
2023-12-11T02:39:43.736Z,25.20
2023-12-11T02:42:11.604Z,22.23
2023-12-11T02:44:40.935Z,23.02
2023-12-11T02:47:08.909Z,18.30
2023-12-11T02:49:36.937Z,25.88
2023-12-11T02:52:05.193Z,17.73
2023-12-11T02:54:33.107Z,15.23
2023-12-11T02:57:01.055Z,15.48
2023-12-11T02:59:28.921Z,27.50
2023-12-11T03:01:58.253Z,28.73
2023-12-11T03:04:26.362Z,24.23
2023-12-11T03:06:54.436Z,21.58
2023-12-11T03:09:22.329Z,23.55
2023-12-11T03:11:50.205Z,21.75
2023-12-11T03:14:18.090Z,21.48
2023-12-11T03:16:49.284Z,22.55
2023-12-11T03:19:19.101Z,25.45
2023-12-11T03:21:47.137Z,26.27
2023-12-11T03:24:15.016Z,21.77
2023-12-11T03:26:42.893Z,30.60
2023-12-11T03:29:10.778Z,27.27
2023-12-11T03:31:39.204Z,24.67
2023-12-11T03:34:07.220Z,24.73
2023-12-11T03:36:36.544Z,32.92
2023-12-11T03:39:04.517Z,25.50
2023-12-11T03:41:32.412Z,19.75
2023-12-11T03:44:00.299Z,24.90
2023-12-11T03:46:28.202Z,21.85
2023-12-11T03:48:56.223Z,28.27
2023-12-11T03:51:24.211Z,19.00
2023-12-11T03:53:53.460Z,17.17
2023-12-11T03:56:21.334Z,28.25
2023-12-11T03:58:49.205Z,25.15
2023-12-11T04:01:17.214Z,25.38
2023-12-11T04:03:45.276Z,28.98
2023-12-11T04:06:13.310Z,22.95
2023-12-11T04:08:42.990Z,28.73
2023-12-11T04:11:12.233Z,17.30
2023-12-11T04:13:40.295Z,19.42
2023-12-11T04:16:08.706Z,24.75
2023-12-11T04:18:37.876Z,13.68
2023-12-11T04:21:06.496Z,30.48
2023-12-11T04:23:34.387Z,23.90
2023-12-11T04:26:03.324Z,25.23
2023-12-11T04:28:32.591Z,27.15
2023-12-11T04:31:00.575Z,27.25
2023-12-11T04:33:28.613Z,22.10
2023-12-11T04:35:56.872Z,30.08
2023-12-11T04:38:24.790Z,26.70
2023-12-11T04:40:52.704Z,22.50
2023-12-11T04:43:20.576Z,29.85
2023-12-11T04:45:50.327Z,18.35
2023-12-11T04:48:18.356Z,30.80
2023-12-11T04:50:46.313Z,24.88
2023-12-11T04:53:14.235Z,23.73
2023-12-11T04:55:42.469Z,21.77
2023-12-11T04:58:10.681Z,25.58
2023-12-11T05:00:39.075Z,28.38
2023-12-11T05:03:08.385Z,24.45
2023-12-11T05:05:37.369Z,17.25
2023-12-11T05:08:05.773Z,26.05
2023-12-11T05:10:35.200Z,20.80
2023-12-11T05:13:03.221Z,24.40
2023-12-11T05:15:31.121Z,23.98
2023-12-11T05:17:59.041Z,27.27
2023-12-11T05:20:28.302Z,27.80
2023-12-11T05:22:56.204Z,20.08
2023-12-11T05:25:24.321Z,22.40
2023-12-11T05:27:52.300Z,30.50
2023-12-11T05:30:23.556Z,27.40
2023-12-11T05:32:52.515Z,11.68
2023-12-11T05:35:20.454Z,23.65
2023-12-11T05:37:49.736Z,17.77
2023-12-11T05:40:22.637Z,18.80
2023-12-11T05:42:52.339Z,16.40
2023-12-11T05:45:20.398Z,22.42
2023-12-11T05:47:48.521Z,26.17
2023-12-11T05:50:16.539Z,8.63
2023-12-11T05:52:45.417Z,13.85
2023-12-11T05:55:15.149Z,25.70
2023-12-11T05:57:44.142Z,28.17
2023-12-11T06:00:14.013Z,21.15
2023-12-11T06:02:42.075Z,25.95
2023-12-11T06:05:10.781Z,18.92
2023-12-11T06:07:38.773Z,20.10
2023-12-11T06:10:07.826Z,17.13
2023-12-11T06:12:37.149Z,21.20
2023-12-11T06:15:05.788Z,20.00
2023-12-11T06:17:34.126Z,17.05
2023-12-11T06:20:02.527Z,20.60
2023-12-11T06:22:30.364Z,23.95
2023-12-11T06:24:58.283Z,21.45
2023-12-11T06:27:28.941Z,17.90
2023-12-11T06:29:58.506Z,15.63
2023-12-11T06:32:26.412Z,13.75
2023-12-11T06:34:54.563Z,11.38
2023-12-11T06:37:22.585Z,28.45
2023-12-11T06:39:50.902Z,9.73
2023-12-11T06:42:18.802Z,24.35
2023-12-11T06:44:46.757Z,17.63
2023-12-11T06:47:16.008Z,12.93
2023-12-11T06:49:45.509Z,15.70
2023-12-11T06:52:14.007Z,17.35
2023-12-11T06:54:42.054Z,15.73
2023-12-11T06:57:09.933Z,20.17
2023-12-11T06:59:37.852Z,12.70
2023-12-11T07:02:06.507Z,13.27
2023-12-11T07:04:35.951Z,17.75
2023-12-11T07:07:04.038Z,13.60
2023-12-11T07:09:32.412Z,17.42
2023-12-11T07:12:00.403Z,12.35
2023-12-11T07:14:28.313Z,11.68
2023-12-11T07:16:56.198Z,13.43
2023-12-11T07:19:24.228Z,9.60
2023-12-11T07:21:56.237Z,13.45
2023-12-11T07:24:26.435Z,12.48
2023-12-11T07:26:54.341Z,14.68
2023-12-11T07:29:22.240Z,8.55
2023-12-11T07:31:50.120Z,15.13
2023-12-11T07:34:18.426Z,9.48
2023-12-11T07:36:46.445Z,11.57
2023-12-11T07:39:15.698Z,11.52
2023-12-11T07:41:43.665Z,10.40
2023-12-11T07:44:11.584Z,12.88
2023-12-11T07:46:42.284Z,10.25
2023-12-11T07:49:13.878Z,10.48
2023-12-11T07:51:41.985Z,6.50
2023-12-11T07:54:09.944Z,12.55
2023-12-11T07:56:39.221Z,6.90
2023-12-11T07:59:07.353Z,6.70
2023-12-11T08:01:35.413Z,9.30
2023-12-11T08:04:04.001Z,10.15
2023-12-11T08:06:32.554Z,11.57
2023-12-11T08:09:01.391Z,9.88
2023-12-11T08:11:29.919Z,10.55
2023-12-11T08:13:59.727Z,14.23
2023-12-11T08:16:28.059Z,24.23
2023-12-11T08:18:56.006Z,10.13
2023-12-11T08:21:25.238Z,12.07
2023-12-11T08:23:53.739Z,8.00
2023-12-11T08:26:22.141Z,11.50
2023-12-11T08:28:50.628Z,10.80
2023-12-11T08:31:20.170Z,9.73
2023-12-11T08:33:48.498Z,12.00
2023-12-11T08:36:16.480Z,12.18
2023-12-11T08:38:44.486Z,10.43
2023-12-11T08:41:12.495Z,8.60
2023-12-11T08:43:40.437Z,9.93
2023-12-11T08:46:08.405Z,9.32
2023-12-11T08:48:37.909Z,13.68
2023-12-11T08:51:06.927Z,10.38
2023-12-11T08:53:34.837Z,11.50
2023-12-11T08:56:02.745Z,8.77
2023-12-11T08:58:30.713Z,9.68
2023-12-11T09:00:58.670Z,9.68
2023-12-11T09:03:26.888Z,14.00
2023-12-11T09:05:57.706Z,10.63
2023-12-11T09:10:54.962Z,17.50
2023-12-11T09:13:26.517Z,7.47
2023-12-11T09:15:56.425Z,12.13
2023-12-11T09:18:24.647Z,11.15
2023-12-11T09:20:52.638Z,12.73
2023-12-11T09:23:22.074Z,13.80
2023-12-11T09:25:49.984Z,14.00
2023-12-11T09:28:17.930Z,12.90
2023-12-11T09:30:45.963Z,12.85
2023-12-11T09:33:14.533Z,17.70
2023-12-11T09:35:42.941Z,16.13
2023-12-11T09:38:11.428Z,14.88
2023-12-11T09:40:40.890Z,18.00
2023-12-11T09:43:11.058Z,12.98
2023-12-11T09:45:40.326Z,14.85
2023-12-11T09:48:14.410Z,8.48
2023-12-11T09:50:43.554Z,14.75
2023-12-11T09:53:11.667Z,15.45
2023-12-11T09:55:40.914Z,14.50
2023-12-11T09:58:10.103Z,17.20
2023-12-11T10:00:38.565Z,14.70
2023-12-11T10:03:09.339Z,15.15
2023-12-11T10:05:38.248Z,13.50
2023-12-11T10:08:06.413Z,14.02
2023-12-11T10:10:35.344Z,14.23
2023-12-11T10:13:05.002Z,14.38
2023-12-11T10:15:34.400Z,17.63
2023-12-11T10:18:07.225Z,13.57
2023-12-11T10:20:36.078Z,5.82
2023-12-11T10:23:15.070Z,11.23
2023-12-11T10:25:46.470Z,15.05
2023-12-11T10:28:17.570Z,15.18
2023-12-11T10:33:21.944Z,17.17
2023-12-11T10:35:50.565Z,18.75
2023-12-11T10:38:25.392Z,12.07
2023-12-11T10:40:54.108Z,14.35
2023-12-11T10:43:23.534Z,10.27
2023-12-11T10:45:52.781Z,8.15
2023-12-11T10:48:22.449Z,14.38
2023-12-11T10:50:51.549Z,11.18
2023-12-11T10:53:20.319Z,10.82
2023-12-11T10:55:50.624Z,13.88
2023-12-11T10:58:19.052Z,12.32
2023-12-11T11:00:49.024Z,15.05
2023-12-11T11:03:19.606Z,11.15
2023-12-11T11:05:48.754Z,12.55
2023-12-11T11:08:24.622Z,9.80
2023-12-11T11:10:56.957Z,12.27
2023-12-11T11:13:32.141Z,8.60
2023-12-11T11:16:01.435Z,10.70
2023-12-11T11:18:29.483Z,12.05
2023-12-11T11:21:13.788Z,12.27
2023-12-11T11:23:44.406Z,9.63
2023-12-11T11:26:35.754Z,14.35
2023-12-11T11:29:04.960Z,10.50
2023-12-11T11:31:58.607Z,9.23
2023-12-11T11:34:45.742Z,12.18
2023-12-11T11:37:18.435Z,7.15
2023-12-11T11:40:00.270Z,11.23
2023-12-11T11:42:29.421Z,10.00
2023-12-11T11:44:58.407Z,8.52
2023-12-11T11:47:27.953Z,11.90
2023-12-11T11:50:04.803Z,8.15
2023-12-11T11:52:32.898Z,8.68
2023-12-11T11:55:07.182Z,6.95
2023-12-11T11:57:35.057Z,9.63
2023-12-11T12:00:02.947Z,8.25
2023-12-11T12:02:34.453Z,10.00
2023-12-11T12:05:10.985Z,10.35
2023-12-11T12:07:40.586Z,8.00
2023-12-11T12:10:09.647Z,8.50
2023-12-11T12:12:37.570Z,9.35
2023-12-11T12:15:08.817Z,8.70
2023-12-11T12:17:39.863Z,7.32
2023-12-11T12:20:12.312Z,6.18
2023-12-11T12:22:40.569Z,12.73
2023-12-11T12:25:16.864Z,10.75
2023-12-11T12:27:45.858Z,8.05
2023-12-11T12:30:15.014Z,11.95
2023-12-11T12:32:44.927Z,10.23
2023-12-11T12:35:13.367Z,8.57
2023-12-11T12:37:41.601Z,7.88
2023-12-11T12:40:10.741Z,9.50
2023-12-11T12:42:39.033Z,9.98
2023-12-11T12:45:08.114Z,9.55
2023-12-11T12:47:36.079Z,9.32
2023-12-11T12:50:08.050Z,8.63
2023-12-11T12:52:37.819Z,9.32
2023-12-11T12:55:06.603Z,11.18
2023-12-11T12:57:37.561Z,9.23
2023-12-11T13:00:06.850Z,9.02
2023-12-11T13:02:34.794Z,11.30
2023-12-11T13:05:03.179Z,12.50
2023-12-11T13:07:32.817Z,6.95
2023-12-11T13:10:11.464Z,11.45
2023-12-11T13:12:39.590Z,11.27
2023-12-11T13:15:08.908Z,6.75
2023-12-11T13:17:37.327Z,8.82
2023-12-11T13:20:06.206Z,9.50
2023-12-11T13:22:39.934Z,10.00
2023-12-11T13:25:09.234Z,8.95
2023-12-11T13:27:37.129Z,10.48
2023-12-11T13:30:06.807Z,8.77
2023-12-11T13:32:36.516Z,7.70
2023-12-11T13:35:04.464Z,8.98
2023-12-11T13:37:32.512Z,9.55
2023-12-11T13:40:01.951Z,7.32
2023-12-11T13:42:29.776Z,9.45
2023-12-11T13:44:59.743Z,6.40
2023-12-11T13:47:28.172Z,10.15
2023-12-11T13:49:56.299Z,7.90
2023-12-11T13:52:24.398Z,10.25
2023-12-11T13:54:52.580Z,9.00
2023-12-11T13:57:21.968Z,7.57
2023-12-11T13:59:50.453Z,11.35
2023-12-11T14:02:57.963Z,11.30
2023-12-11T14:05:07.208Z,6.80
2023-12-11T14:07:35.392Z,8.48
2023-12-11T14:10:04.465Z,9.52
2023-12-11T14:12:33.659Z,11.00
2023-12-11T14:15:01.574Z,10.98
2023-12-11T14:17:29.782Z,9.43
2023-12-11T14:19:57.854Z,8.95
2023-12-11T14:22:25.761Z,7.93
2023-12-11T14:24:54.649Z,9.40
2023-12-11T14:27:24.113Z,11.38
2023-12-11T14:29:54.050Z,9.35
2023-12-11T14:32:21.908Z,10.13
2023-12-11T14:34:49.943Z,7.63
2023-12-11T14:37:18.091Z,7.65
2023-12-11T14:39:46.584Z,8.25
2023-12-11T14:42:14.424Z,9.50
2023-12-11T14:44:42.486Z,9.48
2023-12-11T14:47:11.637Z,8.38
2023-12-11T14:49:39.709Z,7.15
2023-12-11T14:52:07.750Z,8.55
2023-12-11T14:54:35.694Z,11.90
2023-12-11T14:57:03.998Z,7.28
2023-12-11T14:59:31.843Z,7.93
2023-12-11T15:01:59.720Z,7.65
2023-12-11T15:04:29.062Z,7.53
2023-12-11T15:06:57.009Z,8.18
2023-12-11T15:09:24.836Z,9.38
2023-12-11T15:11:52.673Z,8.57
2023-12-11T15:14:21.063Z,11.05
2023-12-11T15:16:49.277Z,8.63
2023-12-11T15:19:17.672Z,8.73
2023-12-11T15:21:47.158Z,11.68
2023-12-11T15:24:15.077Z,7.70
2023-12-11T15:26:42.882Z,6.78
2023-12-11T15:29:10.707Z,8.48
2023-12-11T15:31:38.535Z,9.32
2023-12-11T15:34:06.469Z,9.00
2023-12-11T15:36:34.350Z,10.30
2023-12-11T15:39:04.709Z,8.57
2023-12-11T15:41:33.334Z,11.13
2023-12-11T15:44:01.182Z,8.82
2023-12-11T15:46:29.123Z,9.15
2023-12-11T15:48:57.167Z,8.82
2023-12-11T15:51:26.949Z,9.65
2023-12-11T15:53:54.830Z,11.38
2023-12-11T15:56:24.013Z,11.75
2023-12-11T15:58:51.847Z,10.57
2023-12-11T16:01:20.119Z,10.75
2023-12-11T16:03:48.178Z,12.25
2023-12-11T16:06:16.108Z,10.95
2023-12-11T16:08:43.956Z,10.77
2023-12-11T16:11:15.361Z,8.75
2023-12-11T16:13:44.794Z,9.65
2023-12-11T16:16:13.271Z,10.00
2023-12-11T16:18:41.715Z,10.00
2023-12-11T16:21:09.794Z,9.57
2023-12-11T16:23:38.055Z,11.75
2023-12-11T16:26:06.395Z,12.07
2023-12-11T16:28:35.389Z,8.52
2023-12-11T16:31:04.902Z,9.82
2023-12-11T16:33:32.949Z,8.57
2023-12-11T16:36:00.904Z,10.30
2023-12-11T16:38:28.696Z,9.63
2023-12-11T16:40:56.699Z,8.48
2023-12-11T16:43:24.638Z,9.30
2023-12-11T16:45:52.561Z,11.00
2023-12-11T16:48:21.889Z,8.27
2023-12-11T16:50:49.966Z,9.20
2023-12-11T16:53:17.881Z,9.88
2023-12-11T16:55:45.705Z,9.60
2023-12-11T16:58:13.590Z,11.95
2023-12-11T17:00:41.506Z,13.20
2023-12-11T17:03:09.383Z,10.02
2023-12-11T17:05:38.624Z,12.68
2023-12-11T17:08:06.959Z,11.77
2023-12-11T17:10:34.909Z,12.18
2023-12-11T17:13:03.561Z,14.88
2023-12-11T17:15:31.456Z,13.63
2023-12-11T17:17:59.366Z,10.27
2023-12-11T17:20:27.298Z,13.68
2023-12-11T17:22:56.511Z,14.13
2023-12-11T17:25:24.412Z,9.88
2023-12-11T17:27:52.379Z,12.13
2023-12-11T17:30:20.834Z,10.80
2023-12-11T17:32:49.230Z,13.93
2023-12-11T17:35:18.372Z,8.52
2023-12-11T17:37:46.321Z,12.15
2023-12-11T17:40:16.688Z,15.57
2023-12-11T17:42:45.075Z,12.43
2023-12-11T17:45:13.923Z,15.48
2023-12-11T17:47:42.075Z,13.35
2023-12-11T17:50:11.063Z,11.70
2023-12-11T17:52:39.535Z,11.13
2023-12-11T17:55:08.380Z,11.48
2023-12-11T17:57:37.946Z,8.20
2023-12-11T18:00:07.896Z,12.68
2023-12-11T18:02:35.766Z,14.35
2023-12-11T18:05:05.933Z,11.13
2023-12-11T18:07:34.359Z,9.90
2023-12-11T18:10:02.406Z,11.93
2023-12-11T18:12:30.308Z,12.77
2023-12-11T18:15:00.544Z,14.48
2023-12-11T18:17:28.539Z,15.02
2023-12-11T18:19:56.578Z,13.32
2023-12-11T18:22:25.980Z,10.38
2023-12-11T18:24:54.047Z,12.80
2023-12-11T18:27:22.064Z,10.40
2023-12-11T18:29:49.885Z,14.20
2023-12-11T18:32:19.335Z,13.25
2023-12-11T18:34:54.018Z,16.50
2023-12-11T18:37:23.044Z,15.13
2023-12-11T18:39:50.966Z,13.80
2023-12-11T18:42:18.832Z,15.02
2023-12-11T18:44:46.732Z,14.60
2023-12-11T18:47:14.554Z,12.70
2023-12-11T18:49:44.390Z,12.52
2023-12-11T18:52:15.510Z,11.45
2023-12-11T18:54:43.924Z,13.68
2023-12-11T18:57:13.058Z,14.70
2023-12-11T18:59:40.914Z,12.65
2023-12-11T19:02:09.158Z,12.52
2023-12-11T19:04:37.384Z,18.80
2023-12-11T19:07:07.197Z,17.75
2023-12-11T19:09:35.112Z,14.23
2023-12-11T19:12:03.131Z,15.63
2023-12-11T19:14:30.966Z,18.10
2023-12-11T19:16:58.882Z,15.52
2023-12-11T19:19:26.789Z,19.35
2023-12-11T19:21:54.811Z,13.00
2023-12-11T19:24:24.794Z,14.90
2023-12-11T19:26:52.626Z,13.43
2023-12-11T19:29:20.489Z,12.80
2023-12-11T19:31:48.410Z,14.27
2023-12-11T19:34:17.090Z,17.17
2023-12-11T19:36:45.144Z,12.82
2023-12-11T19:39:13.290Z,15.32
2023-12-11T19:41:44.699Z,14.82
2023-12-11T19:44:12.586Z,15.70
2023-12-11T19:46:44.616Z,14.98
2023-12-11T19:49:12.927Z,14.73
2023-12-11T19:51:44.109Z,10.85
2023-12-11T19:56:39.855Z,14.10
2023-12-11T19:59:09.357Z,10.65
2023-12-11T20:01:37.212Z,15.23
2023-12-11T20:04:05.269Z,16.00
2023-12-11T20:06:33.158Z,12.70
2023-12-11T20:09:01.017Z,13.93
2023-12-11T20:11:29.608Z,13.77
2023-12-11T20:13:57.555Z,11.90
2023-12-11T20:16:26.885Z,11.98
2023-12-11T20:18:54.957Z,14.60
2023-12-11T20:21:22.927Z,13.60
2023-12-11T20:23:51.104Z,16.70
2023-12-11T20:26:22.506Z,9.50
2023-12-11T20:28:50.370Z,12.00
2023-12-11T20:31:19.029Z,11.80
2023-12-11T20:33:48.649Z,13.50
2023-12-11T20:36:17.654Z,14.48
2023-12-11T20:38:45.671Z,12.07
2023-12-11T20:41:20.533Z,13.30
2023-12-11T20:43:49.472Z,13.50
2023-12-11T20:46:24.655Z,9.82
2023-12-11T20:48:55.200Z,14.25
2023-12-11T20:51:24.126Z,11.82
2023-12-11T20:53:53.343Z,14.23
2023-12-11T20:56:21.893Z,12.80
2023-12-11T20:58:50.560Z,14.77
2023-12-11T21:01:28.257Z,14.05
2023-12-11T21:03:58.514Z,16.80
2023-12-11T21:06:27.532Z,17.02
2023-12-11T21:08:56.260Z,15.70
2023-12-11T21:11:24.679Z,13.45
2023-12-11T21:13:52.533Z,10.95
2023-12-11T21:16:20.976Z,12.23
2023-12-11T21:18:50.557Z,11.73
2023-12-11T21:21:21.232Z,12.73
2023-12-11T21:23:49.800Z,14.48
2023-12-11T21:26:20.965Z,15.38
2023-12-11T21:29:00.528Z,16.33
2023-12-11T21:31:30.479Z,19.95
2023-12-11T21:33:59.678Z,15.85
2023-12-11T21:36:31.766Z,15.45
2023-12-11T21:38:59.918Z,16.67
2023-12-11T21:41:27.813Z,15.20
2023-12-11T21:43:57.493Z,17.00
2023-12-11T21:46:27.046Z,20.10
2023-12-11T21:48:58.018Z,16.77
2023-12-11T21:51:29.828Z,16.83
2023-12-11T21:53:57.844Z,15.98
2023-12-11T21:56:26.902Z,14.50
2023-12-11T21:58:55.165Z,14.88
2023-12-11T22:01:23.163Z,16.95
2023-12-11T22:03:51.714Z,14.80
2023-12-11T22:06:20.067Z,15.05
2023-12-11T22:08:49.237Z,14.88
2023-12-11T22:11:18.022Z,14.35
2023-12-11T22:13:47.048Z,14.18
2023-12-11T22:16:16.490Z,14.02
2023-12-11T22:18:45.266Z,13.20
2023-12-11T22:21:13.216Z,14.20
2023-12-11T22:23:41.044Z,14.32
2023-12-11T22:26:10.241Z,16.42
2023-12-11T22:28:39.505Z,15.15
2023-12-11T22:31:07.598Z,15.63
2023-12-11T22:33:35.486Z,15.90
2023-12-11T22:36:04.232Z,17.45
2023-12-11T22:38:32.078Z,17.17
2023-12-11T22:41:00.964Z,17.85
2023-12-11T22:43:30.204Z,14.90
2023-12-11T22:45:58.496Z,18.92
2023-12-11T22:48:26.514Z,13.60
2023-12-11T22:50:54.401Z,13.63
2023-12-11T22:53:22.245Z,15.82
2023-12-11T22:55:50.066Z,16.30
2023-12-11T22:58:18.298Z,15.85
2023-12-11T23:00:47.595Z,18.17
2023-12-11T23:03:15.523Z,13.05
2023-12-11T23:05:43.400Z,12.75
2023-12-11T23:08:11.279Z,13.43
2023-12-11T23:10:39.178Z,12.73
2023-12-11T23:13:07.053Z,11.15
2023-12-11T23:15:34.877Z,14.50
2023-12-11T23:18:04.848Z,11.75
2023-12-11T23:20:32.668Z,16.33
2023-12-11T23:23:00.465Z,14.55
2023-12-11T23:25:28.313Z,16.75
2023-12-11T23:27:56.187Z,16.67
2023-12-11T23:30:24.042Z,13.93
2023-12-11T23:32:52.066Z,17.10
2023-12-11T23:35:21.655Z,11.00
2023-12-11T23:37:49.522Z,16.30
2023-12-11T23:40:17.381Z,12.30
2023-12-11T23:42:45.243Z,10.80
2023-12-11T23:45:13.072Z,10.82
2023-12-11T23:47:40.994Z,10.32
2023-12-11T23:50:09.434Z,11.93
2023-12-11T23:52:38.746Z,13.45
2023-12-11T23:55:07.743Z,11.10
2023-12-11T23:57:36.500Z,11.57
